Port Sanilac, Michigan
Current Conditions -  °F | °C
As of 11:00 PM on Saturday 20 Dec 2014 (Local Time) from CYZR Reporting Station
Haze Haze  
Wind Chill: 23°   Ceiling: 3000
Heat Index: 28°   Visibility: 4mi
Dew Point: 21°   Wind: 5mph
Humidity: 74%   Direction: 210°SSW
Pressure: 30.29"   Gusts: NA
Location:  43.43°N, 82.54°W
Report Text: CYZR 210400Z AUTO 21004KT 4SM HZ OVC030 M02/M06 A3029 RMK SLP265
Loading
Personal Weather Stations






























Interactive Weather Map New forecast layout! Learn more

10-Day Weather Forecast

Advertisements
Track Severe Weather on mobile